createdAt,value
2022-09-26T00:00:42.351Z,77.60
2022-09-26T00:03:25.777Z,77.37
2022-09-26T00:05:54.128Z,77.29
2022-09-26T00:08:25.082Z,77.28
2022-09-26T00:11:01.851Z,77.30
2022-09-26T00:13:31.877Z,77.45
2022-09-26T00:16:04.184Z,77.93
2022-09-26T00:18:34.948Z,78.06
2022-09-26T00:21:10.944Z,77.87
2022-09-26T00:23:44.779Z,77.58
2022-09-26T00:26:14.882Z,77.90
2022-09-26T00:28:44.309Z,78.26
2022-09-26T00:31:22.326Z,77.85
2022-09-26T00:33:53.133Z,77.96
2022-09-26T00:36:29.785Z,78.64
2022-09-26T00:39:06.581Z,79.28
2022-09-26T00:41:36.091Z,79.53
2022-09-26T00:44:35.301Z,79.60
2022-09-26T00:47:06.466Z,79.29
2022-09-26T00:49:42.260Z,79.17
2022-09-26T00:52:17.002Z,79.53
2022-09-26T00:54:48.482Z,79.34
2022-09-26T00:57:22.196Z,79.11
2022-09-26T00:59:57.744Z,78.69
2022-09-26T01:02:29.586Z,78.42
2022-09-26T01:04:59.479Z,78.16
2022-09-26T01:07:30.147Z,78.08
2022-09-26T01:09:59.216Z,78.03
2022-09-26T01:12:27.329Z,77.55
2022-09-26T01:14:57.153Z,77.39
2022-09-26T01:17:26.661Z,77.39
2022-09-26T01:20:19.917Z,77.66
2022-09-26T01:23:12.580Z,77.47
2022-09-26T01:26:15.982Z,77.70
2022-09-26T01:29:17.947Z,77.26
2022-09-26T01:32:32.411Z,76.93
2022-09-26T01:35:14.617Z,77.36
2022-09-26T01:38:11.646Z,77.13
2022-09-26T01:40:58.311Z,77.18
2022-09-26T01:43:50.532Z,77.64
2022-09-26T01:46:41.535Z,78.44
2022-09-26T01:49:18.112Z,78.74
2022-09-26T01:51:57.145Z,79.42
2022-09-26T01:54:31.855Z,79.27
2022-09-26T01:57:04.851Z,79.68
2022-09-26T01:59:40.941Z,80.26
2022-09-26T02:02:27.440Z,80.36
2022-09-26T02:05:06.252Z,79.85
2022-09-26T02:07:41.452Z,79.17
2022-09-26T02:10:23.236Z,79.35
2022-09-26T02:12:57.924Z,79.59
2022-09-26T02:15:27.669Z,79.20
2022-09-26T02:18:03.497Z,78.80
2022-09-26T02:20:35.237Z,78.38
2022-09-26T02:23:05.151Z,77.92
2022-09-26T02:25:33.554Z,77.57
2022-09-26T02:28:01.930Z,77.56
2022-09-26T02:30:30.729Z,77.73
2022-09-26T02:33:00.010Z,77.90
2022-09-26T02:35:46.743Z,78.54
2022-09-26T02:38:15.023Z,78.57
2022-09-26T02:41:13.335Z,78.61
2022-09-26T02:44:29.743Z,78.38
2022-09-26T02:47:19.703Z,78.00
2022-09-26T02:49:59.964Z,78.30
2022-09-26T02:52:56.096Z,78.61
2022-09-26T02:55:34.972Z,78.56
2022-09-26T02:58:36.284Z,78.43
2022-09-26T03:01:27.697Z,78.18
2022-09-26T03:04:05.201Z,78.28
2022-09-26T03:06:49.182Z,78.46
2022-09-26T03:09:18.649Z,78.46
2022-09-26T03:11:48.466Z,78.47
2022-09-26T03:14:21.287Z,78.52
2022-09-26T03:16:51.774Z,78.60
2022-09-26T03:19:39.625Z,78.59
2022-09-26T03:22:09.645Z,78.61
2022-09-26T03:24:38.025Z,78.61
2022-09-26T03:27:06.352Z,78.36
2022-09-26T03:29:36.215Z,78.22
2022-09-26T03:32:06.028Z,78.54
2022-09-26T03:34:34.616Z,78.76
2022-09-26T03:37:02.796Z,78.94
2022-09-26T03:39:30.980Z,79.36
2022-09-26T03:42:06.355Z,79.70
2022-09-26T03:44:35.223Z,80.07
2022-09-26T03:47:18.247Z,80.68
2022-09-26T03:49:49.679Z,80.19
2022-09-26T03:52:18.003Z,79.29
2022-09-26T03:54:48.947Z,78.99
2022-09-26T03:57:20.474Z,78.96
2022-09-26T03:59:52.793Z,78.92
2022-09-26T04:02:21.320Z,79.12
2022-09-26T04:04:52.286Z,79.14
2022-09-26T04:07:20.550Z,79.16
2022-09-26T04:09:48.939Z,79.26
2022-09-26T04:12:18.039Z,79.24
2022-09-26T04:14:46.928Z,79.31
2022-09-26T04:17:14.994Z,79.45
2022-09-26T04:19:45.218Z,79.70
2022-09-26T04:22:13.810Z,79.68
2022-09-26T04:24:44.445Z,79.97
2022-09-26T04:27:15.557Z,80.22
2022-09-26T04:29:46.001Z,80.32
2022-09-26T04:32:34.777Z,80.52
2022-09-26T04:35:35.313Z,80.27
2022-09-26T04:38:04.934Z,80.23
2022-09-26T04:40:34.108Z,80.25
2022-09-26T04:43:06.879Z,80.43
2022-09-26T04:45:35.153Z,80.55
2022-09-26T04:48:03.847Z,80.85
2022-09-26T04:51:11.918Z,80.78
2022-09-26T04:53:44.175Z,81.21
2022-09-26T04:56:26.684Z,81.53
2022-09-26T04:58:56.665Z,81.71
2022-09-26T05:01:27.538Z,81.78
2022-09-26T05:04:04.200Z,81.91
2022-09-26T05:06:34.533Z,82.05
2022-09-26T05:09:06.264Z,82.11
2022-09-26T05:11:44.820Z,82.28
2022-09-26T05:14:13.730Z,82.33
2022-09-26T05:16:42.476Z,82.43
2022-09-26T05:19:13.914Z,82.60
2022-09-26T05:21:52.068Z,82.69
2022-09-26T05:24:39.403Z,82.83
2022-09-26T05:27:08.185Z,83.05
2022-09-26T05:29:36.371Z,83.30
2022-09-26T05:32:07.327Z,83.39
2022-09-26T05:34:41.427Z,83.62
2022-09-26T05:37:12.875Z,83.52
2022-09-26T05:39:59.697Z,83.89
2022-09-26T05:42:28.344Z,83.84
2022-09-26T05:44:56.560Z,83.82
2022-09-26T05:47:26.509Z,83.95
2022-09-26T05:49:54.866Z,83.89
2022-09-26T05:52:23.807Z,83.91
2022-09-26T05:54:52.452Z,83.92
2022-09-26T05:58:01.183Z,84.04
2022-09-26T06:00:52.016Z,84.08
2022-09-26T06:03:20.662Z,84.13
2022-09-26T06:06:11.200Z,83.87
2022-09-26T06:08:41.720Z,83.96
2022-09-26T06:11:35.031Z,83.96
2022-09-26T06:14:05.417Z,83.92
2022-09-26T06:16:34.609Z,83.88
2022-09-26T06:19:06.232Z,83.81
2022-09-26T06:21:40.086Z,83.78
2022-09-26T06:24:15.003Z,83.82
2022-09-26T06:26:45.018Z,83.79
2022-09-26T06:29:19.561Z,83.72
2022-09-26T06:31:54.728Z,83.90
2022-09-26T06:34:52.984Z,84.22
2022-09-26T06:37:41.843Z,84.74
2022-09-26T06:40:11.959Z,85.11
2022-09-26T06:42:41.165Z,85.42
2022-09-26T06:45:27.739Z,85.59
2022-09-26T06:48:12.131Z,85.75
2022-09-26T06:51:00.793Z,86.07
2022-09-26T06:53:32.849Z,86.50
2022-09-26T06:56:03.843Z,86.73
2022-09-26T06:58:35.479Z,87.44
2022-09-26T07:01:07.851Z,87.93
2022-09-26T07:04:04.960Z,88.36
2022-09-26T07:06:38.809Z,88.67
2022-09-26T07:09:12.178Z,88.72
2022-09-26T07:12:15.772Z,88.66
2022-09-26T07:14:50.075Z,88.72
2022-09-26T07:17:30.086Z,89.03
2022-09-26T07:20:16.305Z,89.11
2022-09-26T07:23:06.706Z,89.52
2022-09-26T07:25:39.493Z,89.83
2022-09-26T07:28:10.104Z,89.95
2022-09-26T07:30:47.801Z,90.00
2022-09-26T07:33:24.888Z,90.08
2022-09-26T07:35:55.794Z,90.13
2022-09-26T07:38:26.065Z,89.96
2022-09-26T07:41:01.129Z,89.95
2022-09-26T07:44:21.734Z,90.08
2022-09-26T07:46:42.016Z,90.05
2022-09-26T07:49:30.126Z,90.06
2022-09-26T07:52:02.206Z,90.05
2022-09-26T07:54:43.747Z,90.06
2022-09-26T07:57:17.468Z,89.92
2022-09-26T08:00:13.444Z,89.83
2022-09-26T08:03:09.890Z,90.20
2022-09-26T08:05:40.910Z,90.15
2022-09-26T08:08:11.363Z,89.92
2022-09-26T08:11:03.932Z,89.36
2022-09-26T08:13:47.107Z,89.25
2022-09-26T08:16:24.898Z,89.29
2022-09-26T08:19:06.231Z,89.29
2022-09-26T08:21:36.863Z,88.94
2022-09-26T08:24:07.164Z,88.96
2022-09-26T08:26:56.793Z,88.50
2022-09-26T08:29:37.342Z,88.70
2022-09-26T08:32:09.616Z,88.43
2022-09-26T08:34:41.711Z,87.54
2022-09-26T08:37:35.210Z,87.06
2022-09-26T08:40:34.681Z,87.04
2022-09-26T08:43:31.486Z,87.64
2022-09-26T08:46:33.190Z,88.24
2022-09-26T08:49:30.551Z,86.53
2022-09-26T08:52:23.774Z,86.61
2022-09-26T08:54:58.290Z,86.64
2022-09-26T08:57:37.372Z,85.53
2022-09-26T09:00:19.683Z,85.97
2022-09-26T09:03:11.182Z,86.27
2022-09-26T09:05:51.869Z,86.00
2022-09-26T09:08:31.285Z,86.39
2022-09-26T09:11:39.406Z,85.52
2022-09-26T09:14:35.482Z,85.56
2022-09-26T09:17:31.065Z,85.92
2022-09-26T09:20:52.738Z,85.28
2022-09-26T09:24:17.822Z,85.92
2022-09-26T09:30:24.898Z,85.98
2022-09-26T09:32:59.122Z,86.48
2022-09-26T09:35:48.817Z,86.90
2022-09-26T09:38:44.449Z,87.64
2022-09-26T09:41:38.943Z,87.09
2022-09-26T09:44:46.983Z,86.30
2022-09-26T09:47:21.155Z,86.03
2022-09-26T09:49:50.665Z,86.39
2022-09-26T09:52:47.837Z,86.09
2022-09-26T09:55:33.930Z,85.90
2022-09-26T09:58:03.177Z,86.09
2022-09-26T10:00:41.829Z,86.30
2022-09-26T10:03:33.529Z,86.77
2022-09-26T10:06:08.576Z,87.38
2022-09-26T10:08:55.049Z,88.00
2022-09-26T10:12:05.017Z,88.39
2022-09-26T10:15:02.912Z,88.64
2022-09-26T10:18:23.949Z,88.64
2022-09-26T10:21:19.792Z,89.06
2022-09-26T10:23:51.149Z,88.79
2022-09-26T10:26:37.379Z,88.80
2022-09-26T10:29:39.914Z,89.05
2022-09-26T10:32:14.478Z,89.14
2022-09-26T10:35:05.667Z,89.18
2022-09-26T10:37:39.370Z,89.48
2022-09-26T10:40:48.746Z,89.37
2022-09-26T10:43:26.445Z,89.24
2022-09-26T10:46:13.426Z,88.81
2022-09-26T10:49:04.666Z,88.93
2022-09-26T10:52:22.205Z,88.06
2022-09-26T10:55:35.129Z,87.53
2022-09-26T10:58:15.353Z,87.78
2022-09-26T11:00:49.848Z,87.87
2022-09-26T11:03:32.938Z,88.34
2022-09-26T11:06:34.333Z,87.36
2022-09-26T11:09:23.976Z,87.65
2022-09-26T11:12:29.833Z,87.37
2022-09-26T11:15:09.479Z,87.11
2022-09-26T11:17:49.413Z,86.73
2022-09-26T11:20:55.605Z,85.82
2022-09-26T11:24:03.585Z,85.54
2022-09-26T11:26:49.821Z,84.79
2022-09-26T11:29:19.349Z,84.33
2022-09-26T11:32:07.531Z,83.59
2022-09-26T11:34:36.873Z,83.72
2022-09-26T11:37:27.608Z,83.35
2022-09-26T11:40:14.325Z,83.30
2022-09-26T11:43:09.404Z,82.69
2022-09-26T11:46:15.267Z,82.49
2022-09-26T11:49:27.175Z,82.21
2022-09-26T11:52:44.291Z,82.76
2022-09-26T11:55:25.269Z,81.40
2022-09-26T11:58:25.178Z,81.84
2022-09-26T12:01:02.561Z,82.22
2022-09-26T12:03:39.189Z,82.50
2022-09-26T12:06:22.093Z,82.02
2022-09-26T12:09:13.623Z,81.99
2022-09-26T12:12:08.446Z,81.88
2022-09-26T12:15:20.040Z,81.02
2022-09-26T12:18:32.756Z,80.86
2022-09-26T12:21:27.268Z,81.24
2022-09-26T12:24:08.841Z,81.14
2022-09-26T12:26:52.172Z,81.01
2022-09-26T12:29:30.361Z,80.87
2022-09-26T12:32:24.380Z,81.42
2022-09-26T12:35:05.458Z,80.56
2022-09-26T12:37:59.093Z,80.28
2022-09-26T12:40:57.988Z,80.46
2022-09-26T12:43:50.243Z,79.79
2022-09-26T12:46:33.905Z,80.28
2022-09-26T12:49:29.902Z,79.07
2022-09-26T12:52:26.577Z,79.05
2022-09-26T12:55:44.583Z,78.33
2022-09-26T12:58:50.184Z,78.62
2022-09-26T13:01:28.630Z,78.39
2022-09-26T13:04:17.679Z,78.17
2022-09-26T13:07:24.306Z,78.02
2022-09-26T13:10:08.250Z,77.94
2022-09-26T13:13:11.643Z,77.87
2022-09-26T13:16:22.234Z,77.89
2022-09-26T13:19:03.614Z,78.06
2022-09-26T13:21:41.768Z,77.76
2022-09-26T13:24:23.281Z,77.32
2022-09-26T13:27:19.456Z,77.24
2022-09-26T13:30:20.306Z,77.14
2022-09-26T13:33:18.690Z,76.34
2022-09-26T13:35:51.689Z,75.80
2022-09-26T13:38:41.830Z,76.07
2022-09-26T13:41:25.614Z,75.74
2022-09-26T13:44:32.213Z,75.81
2022-09-26T13:47:02.049Z,75.66
2022-09-26T13:49:36.441Z,74.99
2022-09-26T14:22:07.053Z,72.95
2022-09-26T14:24:47.052Z,72.57
2022-09-26T14:27:37.353Z,72.84
2022-09-26T14:30:28.777Z,72.50
2022-09-26T14:33:11.406Z,71.81
2022-09-26T14:35:40.910Z,71.76
2022-09-26T14:38:16.349Z,71.34
2022-09-26T14:40:59.244Z,70.18
2022-09-26T14:43:32.293Z,71.25
2022-09-26T14:46:06.981Z,70.66
2022-09-26T14:48:44.093Z,71.34
2022-09-26T14:51:17.753Z,71.35
2022-09-26T14:53:50.394Z,70.91
2022-09-26T14:56:35.651Z,70.89
2022-09-26T14:59:17.023Z,70.85
2022-09-26T15:01:48.966Z,71.06
2022-09-26T15:04:28.280Z,70.72
2022-09-26T15:07:06.763Z,70.75
2022-09-26T15:09:55.433Z,70.84
2022-09-26T15:12:44.841Z,71.16
2022-09-26T15:15:17.702Z,71.21
2022-09-26T15:17:54.579Z,71.55
2022-09-26T15:20:46.031Z,71.83
2022-09-26T15:23:31.689Z,71.76
2022-09-26T15:26:06.486Z,71.21
2022-09-26T15:28:38.797Z,70.92
2022-09-26T15:31:25.039Z,70.97
2022-09-26T15:34:05.790Z,70.80
2022-09-26T15:36:40.175Z,70.73
2022-09-26T15:39:32.564Z,70.93
2022-09-26T15:42:28.777Z,71.37
2022-09-26T15:45:01.275Z,71.40
2022-09-26T15:47:30.525Z,71.16
2022-09-26T15:50:22.841Z,71.22
2022-09-26T15:53:07.784Z,71.45
2022-09-26T15:56:09.957Z,71.84
2022-09-26T15:59:14.750Z,71.82
2022-09-26T16:01:49.442Z,72.04
2022-09-26T16:04:29.756Z,72.15
2022-09-26T16:06:59.185Z,72.42
2022-09-26T16:09:46.427Z,72.22
2022-09-26T16:12:16.755Z,72.37
2022-09-26T16:15:03.596Z,72.63
2022-09-26T16:17:48.721Z,72.69
2022-09-26T16:20:25.802Z,72.69
2022-09-26T16:23:05.152Z,72.68
2022-09-26T16:25:59.167Z,72.55
2022-09-26T16:28:44.080Z,72.63
2022-09-26T16:31:27.549Z,72.95
2022-09-26T16:34:02.868Z,72.96
2022-09-26T16:36:46.994Z,73.13
2022-09-26T16:39:30.557Z,73.25
2022-09-26T16:42:14.431Z,73.40
2022-09-26T16:45:15.108Z,73.44
2022-09-26T16:47:51.038Z,73.72
2022-09-26T16:50:34.318Z,73.89
2022-09-26T16:53:09.768Z,74.16
2022-09-26T16:55:40.424Z,74.36
2022-09-26T16:58:15.436Z,74.44
2022-09-26T17:01:04.418Z,74.50
2022-09-26T17:03:42.618Z,74.54
2022-09-26T17:06:17.101Z,74.70
2022-09-26T17:08:50.221Z,74.77
2022-09-26T17:11:20.062Z,74.92
2022-09-26T17:13:51.354Z,75.08
2022-09-26T17:16:23.253Z,75.24
2022-09-26T17:18:55.626Z,75.25
2022-09-26T17:21:41.792Z,75.38
2022-09-26T17:24:16.911Z,75.72
2022-09-26T17:26:59.657Z,75.93
2022-09-26T17:29:43.200Z,75.95
2022-09-26T17:32:45.524Z,75.79
2022-09-26T17:35:30.482Z,75.79
2022-09-26T17:38:10.043Z,75.91
2022-09-26T17:40:47.724Z,76.14
2022-09-26T17:43:28.039Z,76.56
2022-09-26T17:46:03.567Z,76.44
2022-09-26T17:48:43.115Z,76.42
2022-09-26T17:51:26.410Z,76.39
2022-09-26T17:54:12.758Z,76.31
2022-09-26T17:56:50.905Z,76.32
2022-09-26T17:59:29.968Z,76.51
2022-09-26T18:02:33.705Z,76.62
2022-09-26T18:05:16.127Z,76.44
2022-09-26T18:07:55.668Z,76.70
2022-09-26T18:10:35.571Z,77.13
2022-09-26T18:13:18.129Z,77.42
2022-09-26T18:16:04.447Z,77.37
2022-09-26T18:18:40.447Z,77.22
2022-09-26T18:21:19.715Z,77.74
2022-09-26T18:24:07.225Z,78.10
2022-09-26T18:26:52.481Z,78.17
2022-09-26T18:29:39.618Z,78.48
2022-09-26T18:32:31.514Z,78.84
2022-09-26T18:35:15.206Z,78.96
2022-09-26T18:37:51.543Z,78.98
2022-09-26T18:40:30.887Z,78.87
2022-09-26T18:43:13.601Z,79.04
2022-09-26T18:45:56.028Z,78.97
2022-09-26T18:48:39.589Z,79.41
2022-09-26T18:51:14.637Z,79.62
2022-09-26T18:53:50.541Z,79.95
2022-09-26T18:56:48.793Z,80.20
2022-09-26T18:59:26.752Z,80.60
2022-09-26T19:02:05.705Z,80.84
2022-09-26T19:04:43.067Z,81.13
2022-09-26T19:07:21.465Z,81.46
2022-09-26T19:09:58.585Z,81.56
2022-09-26T19:12:32.745Z,81.82
2022-09-26T19:15:18.981Z,81.77
2022-09-26T19:17:54.300Z,81.97
2022-09-26T19:20:32.560Z,81.85
2022-09-26T19:23:09.031Z,81.71
2022-09-26T19:25:47.858Z,81.73
2022-09-26T19:28:29.795Z,81.75
2022-09-26T19:31:07.746Z,81.81
2022-09-26T19:33:48.174Z,81.69
2022-09-26T19:36:23.766Z,81.75
2022-09-26T19:38:59.466Z,81.87
2022-09-26T19:41:33.850Z,81.82
2022-09-26T19:44:16.765Z,81.92
2022-09-26T19:46:50.357Z,81.83
2022-09-26T19:49:27.948Z,81.73
2022-09-26T19:52:08.287Z,81.70
2022-09-26T19:54:41.175Z,81.78
2022-09-26T19:57:25.058Z,81.60
2022-09-26T20:00:00.558Z,81.63
2022-09-26T20:02:33.191Z,81.75
2022-09-26T20:05:21.062Z,81.76
2022-09-26T20:07:54.844Z,82.09
2022-09-26T20:10:25.603Z,82.32
2022-09-26T20:12:54.782Z,82.06
2022-09-26T20:15:24.425Z,81.67
2022-09-26T20:17:55.520Z,81.58
2022-09-26T20:20:26.569Z,81.82
2022-09-26T20:22:56.970Z,81.77
2022-09-26T20:25:29.198Z,81.72
2022-09-26T20:28:02.582Z,82.15
2022-09-26T20:30:50.793Z,82.23
2022-09-26T20:33:24.508Z,82.32
2022-09-26T20:36:02.875Z,82.31
2022-09-26T20:38:42.097Z,82.27
2022-09-26T20:41:26.931Z,82.44
2022-09-26T20:44:02.787Z,82.41
2022-09-26T20:46:37.567Z,82.51
2022-09-26T20:49:15.276Z,82.52
2022-09-26T20:51:46.386Z,82.73
2022-09-26T20:54:26.082Z,82.90
2022-09-26T20:56:57.127Z,83.21
2022-09-26T20:59:27.459Z,83.32
2022-09-26T21:01:58.591Z,83.81
2022-09-26T21:04:32.460Z,83.99
2022-09-26T21:07:01.074Z,84.15
2022-09-26T21:09:30.056Z,84.58
2022-09-26T21:11:58.384Z,84.59
2022-09-26T21:14:26.724Z,84.94
2022-09-26T21:16:55.239Z,84.98
2022-09-26T21:19:25.129Z,85.07
2022-09-26T21:22:04.150Z,85.16
2022-09-26T21:24:45.959Z,85.09
2022-09-26T21:27:14.374Z,85.08
2022-09-26T21:29:46.610Z,85.06
2022-09-26T21:32:18.932Z,85.04
2022-09-26T21:34:57.731Z,85.17
2022-09-26T21:37:30.222Z,85.24
2022-09-26T21:39:58.954Z,85.22
2022-09-26T21:42:27.544Z,85.27
2022-09-26T21:45:03.360Z,85.34
2022-09-26T21:47:32.349Z,85.37
2022-09-26T21:50:00.757Z,85.39
2022-09-26T21:52:37.318Z,85.18
2022-09-26T21:55:07.182Z,85.18
2022-09-26T21:57:41.499Z,84.85
2022-09-26T22:00:15.299Z,84.76
2022-09-26T22:02:44.355Z,84.66
2022-09-26T22:05:13.367Z,84.68
2022-09-26T22:07:41.631Z,84.46
2022-09-26T22:10:12.775Z,84.34
2022-09-26T22:12:41.453Z,84.25
2022-09-26T22:15:10.611Z,84.14
2022-09-26T22:17:38.956Z,84.08
2022-09-26T22:20:08.244Z,83.90
2022-09-26T22:22:36.932Z,83.82
2022-09-26T22:25:10.468Z,83.78
2022-09-26T22:27:42.126Z,83.50
2022-09-26T22:30:10.978Z,83.46
2022-09-26T22:32:40.199Z,83.29
2022-09-26T22:35:11.425Z,83.14
2022-09-26T22:37:40.003Z,83.05
2022-09-26T22:40:09.292Z,82.91
2022-09-26T22:42:37.574Z,82.78
2022-09-26T22:45:09.740Z,82.56
2022-09-26T22:47:41.789Z,82.36
2022-09-26T22:50:10.795Z,82.45
2022-09-26T22:52:39.014Z,82.43
2022-09-26T22:55:08.442Z,82.42
2022-09-26T22:57:36.659Z,82.41
2022-09-26T23:00:06.266Z,82.52
2022-09-26T23:02:34.991Z,82.59
2022-09-26T23:05:04.053Z,82.64
2022-09-26T23:07:32.299Z,82.61
2022-09-26T23:10:00.802Z,82.72
2022-09-26T23:12:30.620Z,82.74
2022-09-26T23:14:58.949Z,82.75
2022-09-26T23:17:27.165Z,82.94
2022-09-26T23:19:55.465Z,82.96
2022-09-26T23:22:23.825Z,82.95
2022-09-26T23:24:51.995Z,82.98
2022-09-26T23:27:20.097Z,83.03
2022-09-26T23:35:58.396Z,83.51
2022-09-26T23:41:53.794Z,83.63
2022-09-26T23:47:37.487Z,83.59
2022-09-26T23:53:52.818Z,83.70
